Time;durP1;ratioP1;P1;durP2;ratioP2;P2;SDS_P1;SDS_P2;PMS_P1;PMS_P2;Temp;Humidity;BMP_temperature;BMP_pressure;BME280_temperature;BME280_humidity;BME280_pressure;Samples;Min_cycle;Max_cycle;Signal;HPM_P1;HPM_P2
2022/09/14 00:00:51;;;;;;;;;;;22.80;99.90;;;;;;5027401;28;19925;-67
2022/09/14 00:03:39;;;;;;;;;;;22.80;99.90;;;;;;5030348;28;19931;-65
2022/09/14 00:06:07;;;;;;;;;;;22.80;99.90;;;;;;5030673;28;19932;-63
2022/09/14 00:08:34;;;;;;;;;;;22.80;99.90;;;;;;5028789;28;20372;-66
2022/09/14 00:11:05;;;;;;;;;;;22.80;99.90;;;;;;5010219;28;19932;-67
2022/09/14 00:13:34;;;;;;;;;;;22.80;99.90;;;;;;5025401;28;19925;-66
2022/09/14 00:16:02;;;;;;;;;;;22.80;99.90;;;;;;5031363;28;19959;-65
2022/09/14 00:18:29;;;;;;;;;;;22.80;99.90;;;;;;5030085;28;19925;-65
2022/09/14 00:21:03;;;;;;;;;;;22.80;99.90;;;;;;5028696;28;20253;-66
2022/09/14 00:23:30;;;;;;;;;;;22.80;99.90;;;;;;5020158;28;19929;-65
2022/09/14 00:26:04;;;;;;;;;;;22.80;99.90;;;;;;5032250;28;19936;-66
2022/09/14 00:28:45;;;;;;;;;;;22.80;99.90;;;;;;5026140;28;19929;-67
2022/09/14 00:31:13;;;;;;;;;;;22.80;99.90;;;;;;5027676;28;19933;-66
2022/09/14 00:33:41;;;;;;;;;;;22.80;99.90;;;;;;5027846;28;19933;-67
2022/09/14 00:36:16;;;;;;;;;;;22.80;99.90;;;;;;5018857;28;20301;-65
2022/09/14 00:38:44;;;;;;;;;;;22.80;99.90;;;;;;5028992;28;19925;-67
2022/09/14 00:41:13;;;;;;;;;;;22.80;99.90;;;;;;5019244;28;19932;-67
2022/09/14 00:43:58;;;;;;;;;;;22.80;99.90;;;;;;5032469;28;21551;-64
2022/09/14 00:46:27;;;;;;;;;;;22.80;99.90;;;;;;5033554;28;19929;-67
2022/09/14 00:48:56;;;;;;;;;;;22.80;99.90;;;;;;5033543;28;19925;-67
2022/09/14 00:51:23;;;;;;;;;;;22.80;99.90;;;;;;5032398;28;19932;-64
2022/09/14 00:53:50;;;;;;;;;;;22.80;99.90;;;;;;5026495;28;19925;-65
2022/09/14 00:56:18;;;;;;;;;;;22.80;99.90;;;;;;5043291;28;19926;-64
2022/09/14 00:58:46;;;;;;;;;;;22.70;99.90;;;;;;5033763;28;19935;-66
2022/09/14 01:01:14;;;;;;;;;;;22.80;99.90;;;;;;5026993;28;19925;-66
2022/09/14 01:03:41;;;;;;;;;;;22.80;99.90;;;;;;5027091;28;19925;-66
2022/09/14 01:06:16;;;;;;;;;;;22.80;99.90;;;;;;5030706;28;19932;-65
2022/09/14 01:08:52;;;;;;;;;;;22.80;99.90;;;;;;5020392;28;19925;-66
2022/09/14 01:11:31;;;;;;;;;;;22.70;99.90;;;;;;5037562;28;20420;-66
2022/09/14 01:14:11;;;;;;;;;;;22.80;99.90;;;;;;5031321;28;20003;-65
2022/09/14 01:16:46;;;;;;;;;;;22.70;99.90;;;;;;5028318;28;20407;-65
2022/09/14 01:19:20;;;;;;;;;;;22.80;99.90;;;;;;5037530;28;19932;-66
2022/09/14 01:21:49;;;;;;;;;;;22.80;99.90;;;;;;5048725;28;19928;-65
2022/09/14 01:24:25;;;;;;;;;;;22.70;99.90;;;;;;5033560;28;19956;-66
2022/09/14 01:26:52;;;;;;;;;;;22.70;99.90;;;;;;5034612;28;19925;-66
2022/09/14 01:29:31;;;;;;;;;;;22.80;99.90;;;;;;5026206;28;19936;-66
2022/09/14 01:32:01;;;;;;;;;;;22.70;99.90;;;;;;5035043;28;19936;-65
2022/09/14 01:34:33;;;;;;;;;;;22.70;99.90;;;;;;5033634;28;20340;-65
2022/09/14 01:37:05;;;;;;;;;;;22.70;99.90;;;;;;5026295;28;19929;-66
2022/09/14 01:39:34;;;;;;;;;;;22.70;99.90;;;;;;5009164;28;19929;-65
2022/09/14 01:42:01;;;;;;;;;;;22.70;99.90;;;;;;5025307;28;20340;-65
2022/09/14 01:44:33;;;;;;;;;;;22.70;99.90;;;;;;5025034;28;19933;-66
2022/09/14 01:47:05;;;;;;;;;;;22.70;99.90;;;;;;5026212;28;20230;-66
2022/09/14 01:49:36;;;;;;;;;;;22.70;99.90;;;;;;5021733;28;19936;-66
2022/09/14 01:52:03;;;;;;;;;;;22.70;99.90;;;;;;5028943;28;20317;-65
2022/09/14 01:54:33;;;;;;;;;;;22.70;99.90;;;;;;5022100;28;19929;-65
2022/09/14 01:57:07;;;;;;;;;;;22.70;99.90;;;;;;5038381;28;19929;-67
2022/09/14 01:59:40;;;;;;;;;;;22.70;99.90;;;;;;5026756;28;19936;-66
2022/09/14 02:02:10;;;;;;;;;;;22.70;99.90;;;;;;5025956;28;19936;-65
2022/09/14 02:04:37;;;;;;;;;;;22.70;99.90;;;;;;5018934;28;19925;-66
2022/09/14 02:07:05;;;;;;;;;;;22.70;99.90;;;;;;5028191;28;19929;-66
2022/09/14 02:09:32;;;;;;;;;;;22.70;99.90;;;;;;5010213;28;19929;-66
2022/09/14 02:12:00;;;;;;;;;;;22.70;99.90;;;;;;5033971;28;19929;-66
2022/09/14 02:14:27;;;;;;;;;;;22.70;99.90;;;;;;5035275;28;19929;-65
2022/09/14 02:16:54;;;;;;;;;;;22.70;99.90;;;;;;5032397;28;19925;-67
2022/09/14 02:19:21;;;;;;;;;;;22.70;99.90;;;;;;5022947;28;20393;-66
2022/09/14 02:21:50;;;;;;;;;;;22.70;99.90;;;;;;5033846;28;19928;-67
2022/09/14 02:24:17;;;;;;;;;;;22.70;99.90;;;;;;5023344;28;19929;-66
2022/09/14 02:26:45;;;;;;;;;;;22.70;99.90;;;;;;5036038;28;20392;-67
2022/09/14 02:29:12;;;;;;;;;;;22.70;99.90;;;;;;5013673;28;20428;-67
2022/09/14 02:31:56;;;;;;;;;;;22.70;99.90;;;;;;5025641;28;19952;-66
2022/09/14 02:34:34;;;;;;;;;;;22.70;99.90;;;;;;5024684;28;19951;-67
2022/09/14 02:37:01;;;;;;;;;;;22.70;99.90;;;;;;5022769;28;20538;-67
2022/09/14 02:39:35;;;;;;;;;;;22.70;99.90;;;;;;5009141;28;19944;-67
2022/09/14 02:42:08;;;;;;;;;;;22.70;99.90;;;;;;5037314;28;19929;-62
2022/09/14 02:44:42;;;;;;;;;;;22.70;99.90;;;;;;5030418;28;19936;-66
2022/09/14 02:47:09;;;;;;;;;;;22.70;99.90;;;;;;5019117;28;19929;-66
2022/09/14 02:49:44;;;;;;;;;;;22.70;99.90;;;;;;5033521;28;19929;-65
2022/09/14 02:52:14;;;;;;;;;;;22.70;99.90;;;;;;5025768;28;20035;-67
2022/09/14 02:54:45;;;;;;;;;;;22.70;99.90;;;;;;5029231;28;19929;-66
2022/09/14 02:57:12;;;;;;;;;;;22.70;99.90;;;;;;5033197;28;19929;-66
2022/09/14 02:59:39;;;;;;;;;;;22.70;99.90;;;;;;5032470;28;20396;-65
2022/09/14 03:02:06;;;;;;;;;;;22.70;99.90;;;;;;5025423;28;19936;-65
2022/09/14 03:04:33;;;;;;;;;;;22.70;99.90;;;;;;5021584;28;20443;-67
2022/09/14 03:07:00;;;;;;;;;;;22.70;99.90;;;;;;5011832;28;20309;-67
2022/09/14 03:09:27;;;;;;;;;;;22.70;99.90;;;;;;5038643;28;19932;-66
2022/09/14 03:11:55;;;;;;;;;;;22.70;99.90;;;;;;5038765;28;19929;-66
2022/09/14 03:14:22;;;;;;;;;;;22.70;99.90;;;;;;5031587;28;19929;-66
2022/09/14 03:16:49;;;;;;;;;;;22.70;99.90;;;;;;5018020;28;19936;-66
2022/09/14 03:19:16;;;;;;;;;;;22.70;99.90;;;;;;5030537;28;19932;-66
2022/09/14 03:21:43;;;;;;;;;;;22.70;99.90;;;;;;5029621;28;19940;-66
2022/09/14 03:24:10;;;;;;;;;;;22.70;99.90;;;;;;5035824;28;19928;-66
2022/09/14 03:26:38;;;;;;;;;;;22.70;99.90;;;;;;5032242;28;19933;-68
2022/09/14 03:29:06;;;;;;;;;;;22.70;99.90;;;;;;5047746;22;19914;-66
2022/09/14 03:31:33;;;;;;;;;;;22.70;99.90;;;;;;5035878;28;20308;-66
2022/09/14 03:34:01;;;;;;;;;;;22.70;99.90;;;;;;5019080;28;20279;-68
2022/09/14 03:36:29;;;;;;;;;;;22.70;99.90;;;;;;5032776;28;19925;-67
2022/09/14 03:38:58;;;;;;;;;;;22.70;99.90;;;;;;5037147;28;19929;-67
2022/09/14 03:41:26;;;;;;;;;;;22.70;99.90;;;;;;5036818;28;19932;-67
2022/09/14 03:43:54;;;;;;;;;;;22.70;99.90;;;;;;5032955;28;20376;-66
2022/09/14 03:46:23;;;;;;;;;;;22.70;99.90;;;;;;5032580;28;19941;-67
2022/09/14 03:48:56;;;;;;;;;;;22.60;99.90;;;;;;5005788;28;20307;-68
2022/09/14 03:51:24;;;;;;;;;;;22.60;99.90;;;;;;5035964;28;19932;-68
2022/09/14 03:53:52;;;;;;;;;;;22.70;99.90;;;;;;5021526;28;19968;-69
2022/09/14 03:56:22;;;;;;;;;;;22.60;99.90;;;;;;5022436;28;19937;-67
2022/09/14 03:58:50;;;;;;;;;;;22.60;99.90;;;;;;5031853;28;19929;-69
2022/09/14 04:01:22;;;;;;;;;;;22.60;99.90;;;;;;5035064;28;19925;-67
2022/09/14 04:03:50;;;;;;;;;;;22.60;99.90;;;;;;5019420;28;20209;-68
2022/09/14 04:06:18;;;;;;;;;;;22.60;99.90;;;;;;5027756;28;19948;-68
2022/09/14 04:08:46;;;;;;;;;;;22.60;99.90;;;;;;5029696;28;19993;-67
2022/09/14 04:11:15;;;;;;;;;;;22.60;99.90;;;;;;5028511;28;19929;-68
2022/09/14 04:13:43;;;;;;;;;;;22.60;99.90;;;;;;5016795;28;19933;-67
2022/09/14 04:16:14;;;;;;;;;;;22.60;99.90;;;;;;5029018;28;19929;-68
2022/09/14 04:18:42;;;;;;;;;;;22.60;99.90;;;;;;5026302;28;19929;-70
2022/09/14 04:21:12;;;;;;;;;;;22.60;99.90;;;;;;5023825;28;19931;-68
2022/09/14 04:23:41;;;;;;;;;;;22.60;99.90;;;;;;5032023;28;19929;-68
2022/09/14 04:26:30;;;;;;;;;;;22.60;99.90;;;;;;5029939;28;19932;-68
2022/09/14 04:28:58;;;;;;;;;;;22.60;99.90;;;;;;5033553;28;19929;-68
2022/09/14 04:31:35;;;;;;;;;;;22.60;99.90;;;;;;5022557;28;19929;-67
2022/09/14 04:34:02;;;;;;;;;;;22.60;99.90;;;;;;5011225;28;19936;-66
2022/09/14 04:36:29;;;;;;;;;;;22.60;99.90;;;;;;5032268;28;20251;-58
2022/09/14 04:38:58;;;;;;;;;;;22.60;99.90;;;;;;5026433;28;19936;-64
2022/09/14 04:41:26;;;;;;;;;;;22.60;99.90;;;;;;5030016;28;19929;-63
2022/09/14 04:43:54;;;;;;;;;;;22.60;99.90;;;;;;5028984;28;20289;-62
2022/09/14 04:46:25;;;;;;;;;;;22.60;99.90;;;;;;5028055;28;19925;-64
2022/09/14 04:48:52;;;;;;;;;;;22.60;99.90;;;;;;5025384;28;19929;-64
2022/09/14 04:51:20;;;;;;;;;;;22.60;99.90;;;;;;5029284;28;19941;-61
2022/09/14 04:53:49;;;;;;;;;;;22.60;99.90;;;;;;5023913;28;19936;-65
2022/09/14 04:56:16;;;;;;;;;;;22.60;99.90;;;;;;5033656;28;19928;-64
2022/09/14 04:58:44;;;;;;;;;;;22.60;99.90;;;;;;5022948;28;19936;-64
2022/09/14 05:01:18;;;;;;;;;;;22.60;99.90;;;;;;5027581;28;19929;-64
2022/09/14 05:03:45;;;;;;;;;;;22.60;99.90;;;;;;5020871;28;19936;-60
2022/09/14 05:06:14;;;;;;;;;;;22.60;99.90;;;;;;5013656;28;19940;-65
2022/09/14 05:08:41;;;;;;;;;;;22.60;99.90;;;;;;5022582;28;19929;-64
2022/09/14 05:11:10;;;;;;;;;;;22.60;99.90;;;;;;5020936;28;19929;-62
2022/09/14 05:13:37;;;;;;;;;;;22.60;99.90;;;;;;5030492;28;19936;-63
2022/09/14 05:16:05;;;;;;;;;;;22.60;99.90;;;;;;5035181;28;19929;-60
2022/09/14 05:18:32;;;;;;;;;;;22.60;99.90;;;;;;5023534;28;19940;-64
2022/09/14 05:21:00;;;;;;;;;;;22.60;99.90;;;;;;5024372;28;19933;-62
2022/09/14 05:23:33;;;;;;;;;;;22.60;99.90;;;;;;5029267;28;19937;-60
2022/09/14 05:26:01;;;;;;;;;;;22.60;99.90;;;;;;5026591;28;19933;-61
2022/09/14 05:28:28;;;;;;;;;;;22.60;99.90;;;;;;5024908;28;19940;-61
2022/09/14 05:30:55;;;;;;;;;;;22.60;99.90;;;;;;5026570;28;19936;-62
2022/09/14 05:33:22;;;;;;;;;;;22.60;99.90;;;;;;5015022;28;19934;-62
2022/09/14 05:35:49;;;;;;;;;;;22.60;99.90;;;;;;5021166;28;19929;-64
2022/09/14 05:38:17;;;;;;;;;;;22.60;99.90;;;;;;5027905;28;20412;-65
2022/09/14 05:40:44;;;;;;;;;;;22.60;99.90;;;;;;5022127;28;19932;-63
2022/09/14 05:43:11;;;;;;;;;;;22.60;99.90;;;;;;5028190;28;19925;-65
2022/09/14 05:45:38;;;;;;;;;;;22.60;99.90;;;;;;5008918;28;19933;-63
2022/09/14 05:48:05;;;;;;;;;;;22.60;99.90;;;;;;5024312;28;20129;-63
2022/09/14 05:50:33;;;;;;;;;;;22.50;99.90;;;;;;5024991;28;19944;-62
2022/09/14 05:53:00;;;;;;;;;;;22.50;99.90;;;;;;5008607;28;19928;-67
2022/09/14 05:55:27;;;;;;;;;;;22.60;99.90;;;;;;5028195;28;19936;-64
2022/09/14 05:57:54;;;;;;;;;;;22.50;99.90;;;;;;5025775;28;19932;-66
2022/09/14 06:00:21;;;;;;;;;;;22.60;99.90;;;;;;5022880;28;19933;-59
2022/09/14 06:02:49;;;;;;;;;;;22.50;99.90;;;;;;5014782;28;19931;-65
2022/09/14 06:05:16;;;;;;;;;;;22.60;99.90;;;;;;5018740;28;19929;-65
2022/09/14 06:07:44;;;;;;;;;;;22.50;99.90;;;;;;5026952;28;20277;-62
2022/09/14 06:10:11;;;;;;;;;;;22.60;99.90;;;;;;5022864;28;19933;-64
2022/09/14 06:12:38;;;;;;;;;;;22.50;99.90;;;;;;5026638;28;19940;-63
2022/09/14 06:15:05;;;;;;;;;;;22.60;99.90;;;;;;5026385;28;19929;-66
2022/09/14 06:17:32;;;;;;;;;;;22.50;99.90;;;;;;5027705;28;19933;-63
2022/09/14 06:19:59;;;;;;;;;;;22.60;99.90;;;;;;5022940;28;19929;-64
2022/09/14 06:22:31;;;;;;;;;;;22.50;99.90;;;;;;5029785;28;19930;-65
2022/09/14 06:24:58;;;;;;;;;;;22.50;99.90;;;;;;5016881;28;19929;-61
2022/09/14 06:27:26;;;;;;;;;;;22.60;99.90;;;;;;5021897;28;19929;-63
2022/09/14 06:29:53;;;;;;;;;;;22.60;99.90;;;;;;5020594;28;19929;-64
2022/09/14 06:32:22;;;;;;;;;;;22.70;99.90;;;;;;5023160;28;20570;-62
2022/09/14 06:34:49;;;;;;;;;;;22.70;99.90;;;;;;5023450;28;20309;-62
2022/09/14 06:37:16;;;;;;;;;;;22.80;99.90;;;;;;5024624;28;19936;-63
2022/09/14 06:39:43;;;;;;;;;;;22.80;99.90;;;;;;5020591;28;19933;-58
2022/09/14 06:42:10;;;;;;;;;;;22.80;99.90;;;;;;5024608;28;19960;-63
2022/09/14 06:44:39;;;;;;;;;;;22.80;99.90;;;;;;5026237;28;19932;-65
2022/09/14 06:47:06;;;;;;;;;;;22.80;99.90;;;;;;5020414;28;19952;-65
2022/09/14 06:49:33;;;;;;;;;;;22.80;99.90;;;;;;5024200;28;20306;-63
2022/09/14 06:52:00;;;;;;;;;;;22.80;99.90;;;;;;5023234;28;19933;-64
2022/09/14 06:54:27;;;;;;;;;;;22.80;99.90;;;;;;5021601;28;21373;-62
2022/09/14 06:56:54;;;;;;;;;;;22.80;99.90;;;;;;5024057;28;20558;-63
2022/09/14 06:59:21;;;;;;;;;;;22.80;99.90;;;;;;5024361;28;20344;-64
2022/09/14 07:01:48;;;;;;;;;;;22.80;99.90;;;;;;5023666;28;19926;-68
2022/09/14 07:04:16;;;;;;;;;;;22.90;99.90;;;;;;5021444;28;19933;-67
2022/09/14 07:06:44;;;;;;;;;;;22.90;99.90;;;;;;5027074;28;19933;-66
2022/09/14 07:09:12;;;;;;;;;;;23.00;99.90;;;;;;5024217;28;20397;-67
2022/09/14 07:11:39;;;;;;;;;;;23.00;99.90;;;;;;5020469;28;19932;-64
2022/09/14 07:14:07;;;;;;;;;;;23.00;99.90;;;;;;5023858;28;20404;-67
2022/09/14 07:16:35;;;;;;;;;;;23.00;99.90;;;;;;5024207;28;19929;-59
2022/09/14 07:19:03;;;;;;;;;;;22.90;99.90;;;;;;5025118;28;19933;-54
2022/09/14 07:21:30;;;;;;;;;;;22.60;99.90;;;;;;5019537;28;20323;-53
2022/09/14 07:23:58;;;;;;;;;;;22.50;99.90;;;;;;5020376;28;20405;-55
2022/09/14 07:26:26;;;;;;;;;;;22.50;99.90;;;;;;5026965;28;20427;-59
2022/09/14 07:28:55;;;;;;;;;;;22.60;99.90;;;;;;5015805;28;19940;-62
2022/09/14 07:31:24;;;;;;;;;;;22.70;99.90;;;;;;5021240;28;20432;-63
2022/09/14 07:33:52;;;;;;;;;;;22.70;99.90;;;;;;5024627;28;19939;-59
2022/09/14 07:36:20;;;;;;;;;;;22.80;99.90;;;;;;5022894;28;19929;-60
2022/09/14 07:38:47;;;;;;;;;;;22.90;99.90;;;;;;5022822;28;19933;-58
2022/09/14 07:41:22;;;;;;;;;;;22.90;99.90;;;;;;5027394;28;19925;-62
2022/09/14 07:43:55;;;;;;;;;;;22.90;99.90;;;;;;5023143;28;19936;-59
2022/09/14 07:46:23;;;;;;;;;;;22.90;99.90;;;;;;5027670;28;19929;-62
2022/09/14 07:48:54;;;;;;;;;;;22.90;99.90;;;;;;5030096;28;19936;-63
2022/09/14 07:51:21;;;;;;;;;;;22.90;99.90;;;;;;5026494;28;20397;-60
2022/09/14 07:53:48;;;;;;;;;;;22.90;99.90;;;;;;5024128;28;19925;-62
2022/09/14 07:56:16;;;;;;;;;;;22.90;99.90;;;;;;5023006;28;20277;-62
2022/09/14 07:58:43;;;;;;;;;;;22.90;99.90;;;;;;5026078;28;20360;-58
2022/09/14 08:01:11;;;;;;;;;;;22.90;99.90;;;;;;5028124;28;19929;-59
2022/09/14 08:03:39;;;;;;;;;;;22.90;99.90;;;;;;5022688;28;19935;-60
2022/09/14 08:06:08;;;;;;;;;;;22.90;99.90;;;;;;5028039;28;19951;-64
2022/09/14 08:08:37;;;;;;;;;;;22.90;99.90;;;;;;5024010;28;19932;-57
2022/09/14 08:11:06;;;;;;;;;;;22.90;99.90;;;;;;5023255;28;19937;-59
2022/09/14 08:13:33;;;;;;;;;;;22.90;99.90;;;;;;5024926;28;19925;-61
2022/09/14 08:16:01;;;;;;;;;;;22.90;99.90;;;;;;5027608;28;19933;-55
2022/09/14 08:18:29;;;;;;;;;;;22.90;99.90;;;;;;5026938;28;19941;-60
2022/09/14 08:20:56;;;;;;;;;;;22.90;99.90;;;;;;5025175;28;19944;-62
2022/09/14 08:23:24;;;;;;;;;;;22.90;99.90;;;;;;5022472;28;20412;-60
2022/09/14 08:25:52;;;;;;;;;;;22.90;99.90;;;;;;5028011;28;19932;-59
2022/09/14 08:28:19;;;;;;;;;;;22.90;99.90;;;;;;5018634;28;19936;-56
2022/09/14 08:30:46;;;;;;;;;;;22.80;99.90;;;;;;5028339;28;20624;-61
2022/09/14 08:33:14;;;;;;;;;;;22.80;99.90;;;;;;5027706;28;20404;-60
2022/09/14 08:35:41;;;;;;;;;;;22.80;99.90;;;;;;5029091;28;20778;-58
2022/09/14 08:38:24;;;;;;;;;;;22.80;99.90;;;;;;5028802;28;19932;-58
2022/09/14 08:40:51;;;;;;;;;;;22.80;99.90;;;;;;5029675;28;19936;-59
2022/09/14 08:43:20;;;;;;;;;;;22.80;99.90;;;;;;5027195;28;19925;-61
2022/09/14 08:45:47;;;;;;;;;;;22.80;99.90;;;;;;5021144;28;19934;-60
2022/09/14 08:48:34;;;;;;;;;;;22.80;99.90;;;;;;5024806;28;20392;-57
2022/09/14 08:51:02;;;;;;;;;;;22.80;99.90;;;;;;5027728;28;20009;-56
2022/09/14 08:53:30;;;;;;;;;;;22.80;99.90;;;;;;5029529;28;19936;-62
2022/09/14 08:55:59;;;;;;;;;;;22.80;99.90;;;;;;5031341;28;19940;-62
2022/09/14 08:58:45;;;;;;;;;;;22.80;99.90;;;;;;5012883;28;19925;-59
2022/09/14 09:01:14;;;;;;;;;;;22.90;99.90;;;;;;5032531;28;20075;-61
2022/09/14 09:04:00;;;;;;;;;;;22.90;99.90;;;;;;5024428;28;19933;-62
2022/09/14 09:06:30;;;;;;;;;;;22.90;99.90;;;;;;5031755;28;20157;-60
2022/09/14 09:08:58;;;;;;;;;;;22.90;99.90;;;;;;5025631;28;19932;-58
2022/09/14 09:11:27;;;;;;;;;;;22.70;99.90;;;;;;5027031;28;19933;-59
2022/09/14 09:13:54;;;;;;;;;;;22.50;99.90;;;;;;5027054;28;19925;-56
2022/09/14 09:16:22;;;;;;;;;;;22.30;99.90;;;;;;5025367;28;20351;-60
2022/09/14 09:18:52;;;;;;;;;;;22.30;99.90;;;;;;5016245;28;19929;-60
2022/09/14 09:21:22;;;;;;;;;;;22.40;99.90;;;;;;5024415;28;19944;-59
2022/09/14 09:23:49;;;;;;;;;;;22.50;99.90;;;;;;5026122;28;20386;-61
2022/09/14 09:26:20;;;;;;;;;;;22.70;99.90;;;;;;5024364;28;19928;-60
2022/09/14 09:28:48;;;;;;;;;;;22.70;99.90;;;;;;5022403;28;19948;-61
2022/09/14 09:31:17;;;;;;;;;;;22.80;99.90;;;;;;5024821;28;20381;-60
2022/09/14 09:34:05;;;;;;;;;;;22.90;99.90;;;;;;5026293;28;19925;-61
2022/09/14 09:36:35;;;;;;;;;;;23.00;99.90;;;;;;5006303;28;19925;-58
2022/09/14 09:39:03;;;;;;;;;;;23.00;99.90;;;;;;5010471;28;19925;-61
2022/09/14 09:41:43;;;;;;;;;;;23.00;99.90;;;;;;5008701;28;19929;-59
2022/09/14 09:44:11;;;;;;;;;;;23.00;99.90;;;;;;5008698;28;19925;-59
2022/09/14 09:46:44;;;;;;;;;;;23.00;99.90;;;;;;5026365;28;19925;-61
2022/09/14 09:49:19;;;;;;;;;;;23.00;99.90;;;;;;5024778;28;20250;-60
2022/09/14 09:51:46;;;;;;;;;;;23.00;99.90;;;;;;5029152;28;19929;-59
2022/09/14 09:54:14;;;;;;;;;;;23.00;99.90;;;;;;5027103;28;19929;-62
2022/09/14 09:56:50;;;;;;;;;;;22.90;99.90;;;;;;5033469;28;19948;-61
2022/09/14 09:59:22;;;;;;;;;;;22.90;99.90;;;;;;5024959;28;19929;-60
2022/09/14 10:01:51;;;;;;;;;;;22.90;99.90;;;;;;5027767;28;20412;-62
2022/09/14 10:04:20;;;;;;;;;;;22.90;99.90;;;;;;5020275;28;19932;-61
2022/09/14 10:06:48;;;;;;;;;;;22.90;99.90;;;;;;5027007;28;19933;-63
2022/09/14 10:09:28;;;;;;;;;;;22.90;99.90;;;;;;5014042;28;19933;-62
2022/09/14 10:12:00;;;;;;;;;;;22.90;99.90;;;;;;5022485;28;20012;-61
2022/09/14 10:14:30;;;;;;;;;;;22.90;99.90;;;;;;5041490;22;20405;-63
2022/09/14 10:17:05;;;;;;;;;;;22.90;99.90;;;;;;5018283;28;19925;-63
2022/09/14 10:19:32;;;;;;;;;;;22.90;99.90;;;;;;5039982;28;19939;-65
2022/09/14 10:22:04;;;;;;;;;;;22.90;99.90;;;;;;5042634;28;20511;-64
2022/09/14 10:24:34;;;;;;;;;;;22.90;99.90;;;;;;5037890;28;19924;-64
2022/09/14 10:27:01;;;;;;;;;;;22.90;99.90;;;;;;5030482;28;19933;-61
2022/09/14 10:29:29;;;;;;;;;;;22.90;99.90;;;;;;5042968;28;20320;-63
2022/09/14 10:31:59;;;;;;;;;;;22.90;99.90;;;;;;5034710;28;19936;-60
2022/09/14 10:34:27;;;;;;;;;;;22.90;99.90;;;;;;5040111;28;19929;-67
2022/09/14 10:37:03;;;;;;;;;;;22.80;99.90;;;;;;5037537;28;19948;-60
2022/09/14 10:39:38;;;;;;;;;;;22.90;99.90;;;;;;5043348;28;20013;-63
2022/09/14 10:42:14;;;;;;;;;;;22.90;99.90;;;;;;5037862;28;19936;-62
2022/09/14 10:45:00;;;;;;;;;;;22.90;99.90;;;;;;5033748;28;19929;-64
2022/09/14 10:47:35;;;;;;;;;;;22.90;99.90;;;;;;5014839;28;19951;-62
2022/09/14 10:50:02;;;;;;;;;;;22.80;99.90;;;;;;5014595;28;19929;-66
2022/09/14 10:52:42;;;;;;;;;;;22.80;99.90;;;;;;5033755;28;19936;-63
2022/09/14 10:55:20;;;;;;;;;;;22.80;99.90;;;;;;5016566;28;20372;-62
2022/09/14 10:57:59;;;;;;;;;;;22.80;99.90;;;;;;5037501;28;19940;-65
2022/09/14 11:00:28;;;;;;;;;;;22.90;99.90;;;;;;5034778;28;19929;-65
2022/09/14 11:02:56;;;;;;;;;;;22.80;99.90;;;;;;5044569;28;19933;-64
2022/09/14 11:05:27;;;;;;;;;;;22.80;99.90;;;;;;5019319;28;19929;-63
2022/09/14 11:08:06;;;;;;;;;;;22.80;99.90;;;;;;5031620;28;19929;-65
2022/09/14 11:10:36;;;;;;;;;;;22.80;99.90;;;;;;5037955;28;19932;-64
2022/09/14 11:13:03;;;;;;;;;;;22.80;99.90;;;;;;5036780;28;19929;-65
2022/09/14 11:15:30;;;;;;;;;;;22.80;99.90;;;;;;5038500;28;20578;-63
2022/09/14 11:18:03;;;;;;;;;;;22.90;99.90;;;;;;5016405;28;19980;-63
2022/09/14 11:20:30;;;;;;;;;;;22.80;99.90;;;;;;5040440;28;20426;-65
2022/09/14 11:23:16;;;;;;;;;;;22.90;99.90;;;;;;5032277;28;19925;-63
2022/09/14 11:25:46;;;;;;;;;;;22.90;99.90;;;;;;5036942;28;19929;-62
2022/09/14 11:28:19;;;;;;;;;;;22.90;99.90;;;;;;5028889;28;20414;-63
2022/09/14 11:30:55;;;;;;;;;;;22.90;99.90;;;;;;5040614;28;19933;-63
2022/09/14 11:33:28;;;;;;;;;;;22.90;99.90;;;;;;5046115;28;19940;-65
2022/09/14 11:36:00;;;;;;;;;;;22.90;99.90;;;;;;5034826;28;20297;-66
2022/09/14 11:38:29;;;;;;;;;;;22.80;99.90;;;;;;5037875;28;19937;-65
2022/09/14 11:40:59;;;;;;;;;;;22.80;99.90;;;;;;5042263;28;20020;-66
2022/09/14 11:43:29;;;;;;;;;;;22.80;99.90;;;;;;5045777;28;19928;-67
2022/09/14 11:46:02;;;;;;;;;;;22.80;99.90;;;;;;5041759;28;19936;-64
2022/09/14 11:48:32;;;;;;;;;;;22.80;99.90;;;;;;5041619;28;20388;-64
2022/09/14 11:51:19;;;;;;;;;;;22.80;99.90;;;;;;5048094;28;19933;-66
2022/09/14 11:53:46;;;;;;;;;;;22.90;99.90;;;;;;5041612;28;20250;-63
2022/09/14 11:56:27;;;;;;;;;;;22.80;99.90;;;;;;5045809;28;19951;-63
2022/09/14 11:59:00;;;;;;;;;;;22.80;99.90;;;;;;5047351;28;19929;-65
2022/09/14 12:01:31;;;;;;;;;;;22.80;99.90;;;;;;5038965;28;19979;-66
2022/09/14 12:04:06;;;;;;;;;;;22.80;99.90;;;;;;5026990;28;20316;-63
2022/09/14 12:06:36;;;;;;;;;;;22.80;99.90;;;;;;5044536;28;19925;-66
2022/09/14 12:09:12;;;;;;;;;;;22.90;99.90;;;;;;5039307;28;19932;-64
2022/09/14 12:11:40;;;;;;;;;;;22.90;99.90;;;;;;5039176;28;20554;-66
2022/09/14 12:14:13;;;;;;;;;;;22.90;99.90;;;;;;5046841;28;20404;-62
2022/09/14 12:16:59;;;;;;;;;;;22.90;99.90;;;;;;5039174;28;19936;-65
2022/09/14 12:19:26;;;;;;;;;;;22.90;99.90;;;;;;5041536;28;19929;-66
2022/09/14 12:21:54;;;;;;;;;;;22.90;99.90;;;;;;5041394;28;19925;-64
2022/09/14 12:24:21;;;;;;;;;;;22.90;99.90;;;;;;5038613;28;19952;-63
2022/09/14 12:26:49;;;;;;;;;;;22.90;99.90;;;;;;5044044;28;19929;-65
2022/09/14 12:29:27;;;;;;;;;;;22.90;99.90;;;;;;5039695;28;20318;-63
2022/09/14 12:31:55;;;;;;;;;;;22.90;99.90;;;;;;5046751;28;19929;-64
2022/09/14 12:34:23;;;;;;;;;;;22.90;99.90;;;;;;5039321;28;19929;-63
2022/09/14 12:36:50;;;;;;;;;;;22.90;99.90;;;;;;5037521;28;20415;-63
2022/09/14 12:39:20;;;;;;;;;;;22.90;99.90;;;;;;5047191;28;19932;-63
2022/09/14 12:41:47;;;;;;;;;;;23.00;99.90;;;;;;5039112;28;19940;-64
2022/09/14 12:44:31;;;;;;;;;;;23.00;99.90;;;;;;5022967;28;19933;-66
2022/09/14 12:47:34;;;;;;;;;;;23.00;99.90;;;;;;5021760;28;19936;-66
2022/09/14 12:50:08;;;;;;;;;;;23.00;99.90;;;;;;5042025;28;19936;-61
2022/09/14 12:52:59;;;;;;;;;;;23.00;99.90;;;;;;5018013;28;19927;-64
2022/09/14 12:55:35;;;;;;;;;;;23.10;99.90;;;;;;5032466;28;19929;-64
2022/09/14 12:58:05;;;;;;;;;;;23.10;99.90;;;;;;5037888;28;20324;-66
2022/09/14 13:00:44;;;;;;;;;;;23.10;99.90;;;;;;5042391;28;20312;-66
2022/09/14 13:03:34;;;;;;;;;;;23.10;99.90;;;;;;5039329;28;19944;-69
2022/09/14 13:06:01;;;;;;;;;;;23.10;99.90;;;;;;5041573;28;20396;-62
2022/09/14 13:08:30;;;;;;;;;;;23.10;99.90;;;;;;5022332;28;19929;-60
2022/09/14 13:10:57;;;;;;;;;;;23.10;99.90;;;;;;5039476;28;20396;-62
2022/09/14 13:13:27;;;;;;;;;;;23.10;99.90;;;;;;5048321;28;19948;-64
2022/09/14 13:15:55;;;;;;;;;;;23.00;99.90;;;;;;5036349;28;19929;-65
2022/09/14 13:18:27;;;;;;;;;;;23.00;99.90;;;;;;5049769;28;19932;-60
2022/09/14 13:20:56;;;;;;;;;;;23.00;99.90;;;;;;5044869;28;20285;-59
2022/09/14 13:23:27;;;;;;;;;;;23.00;99.90;;;;;;5023141;28;19932;-57
2022/09/14 13:25:54;;;;;;;;;;;23.00;99.90;;;;;;5014867;28;19956;-61
2022/09/14 13:28:23;;;;;;;;;;;23.00;99.90;;;;;;5041872;28;19928;-64
2022/09/14 13:31:00;;;;;;;;;;;23.00;99.90;;;;;;5021384;28;20365;-61
2022/09/14 13:33:28;;;;;;;;;;;23.00;99.90;;;;;;5039473;28;20572;-62
2022/09/14 13:35:59;;;;;;;;;;;23.10;99.90;;;;;;5040934;28;20391;-59
2022/09/14 13:38:32;;;;;;;;;;;23.10;99.90;;;;;;5034862;28;19936;-59
2022/09/14 13:41:04;;;;;;;;;;;23.00;99.90;;;;;;5038490;28;19936;-59
2022/09/14 13:43:31;;;;;;;;;;;23.00;99.90;;;;;;5036329;28;20169;-62
2022/09/14 13:45:58;;;;;;;;;;;23.00;99.90;;;;;;5024018;28;20000;-63
2022/09/14 13:48:25;;;;;;;;;;;23.00;99.90;;;;;;5042421;28;19929;-63
2022/09/14 13:50:53;;;;;;;;;;;23.00;99.90;;;;;;5037253;28;19933;-61
2022/09/14 13:53:42;;;;;;;;;;;23.00;99.90;;;;;;5038544;28;19936;-63
2022/09/14 13:56:16;;;;;;;;;;;23.00;99.90;;;;;;5047356;28;19924;-65
2022/09/14 13:58:44;;;;;;;;;;;23.00;99.90;;;;;;5047529;28;19933;-58
2022/09/14 14:01:11;;;;;;;;;;;23.00;99.90;;;;;;5038999;28;19936;-60
2022/09/14 14:03:47;;;;;;;;;;;23.00;99.90;;;;;;5041283;28;19928;-60
2022/09/14 14:06:19;;;;;;;;;;;23.00;99.90;;;;;;5038008;28;20075;-59
2022/09/14 14:08:53;;;;;;;;;;;23.00;99.90;;;;;;5037272;28;19925;-60
2022/09/14 14:11:26;;;;;;;;;;;23.00;99.90;;;;;;5043321;28;19925;-62
2022/09/14 14:13:53;;;;;;;;;;;23.00;99.90;;;;;;5049929;28;20404;-58
2022/09/14 14:16:22;;;;;;;;;;;23.00;99.90;;;;;;5025547;28;19940;-60
2022/09/14 14:18:55;;;;;;;;;;;23.00;99.90;;;;;;5034972;28;19934;-60
2022/09/14 14:21:26;;;;;;;;;;;23.00;99.90;;;;;;5041213;28;19928;-59
2022/09/14 14:24:12;;;;;;;;;;;23.00;99.90;;;;;;5043068;28;19935;-62
2022/09/14 14:26:46;;;;;;;;;;;23.00;99.90;;;;;;5038589;28;20479;-61
2022/09/14 14:29:16;;;;;;;;;;;23.00;99.90;;;;;;5015406;28;19952;-59
2022/09/14 14:31:43;;;;;;;;;;;23.00;99.90;;;;;;5037702;28;19940;-60
2022/09/14 14:34:21;;;;;;;;;;;23.00;99.90;;;;;;5045355;28;19929;-58